createdAt,value
2019-05-03T00:01:42.034Z,29.37
2019-05-03T00:04:13.042Z,31.13
2019-05-03T00:06:42.718Z,30.03
2019-05-03T00:09:13.775Z,23.03
2019-05-03T00:11:43.203Z,27.10
2019-05-03T00:14:12.926Z,25.90
2019-05-03T00:16:44.054Z,25.77
2019-05-03T00:19:14.119Z,27.10
2019-05-03T00:21:44.497Z,26.33
2019-05-03T00:24:14.319Z,28.90
2019-05-03T00:26:43.746Z,28.50
2019-05-03T00:29:13.145Z,28.20
2019-05-03T00:31:42.553Z,26.60
2019-05-03T00:34:13.593Z,29.50
2019-05-03T00:36:50.186Z,28.50
2019-05-03T00:39:23.953Z,24.33
2019-05-03T00:41:53.378Z,25.70
2019-05-03T00:44:22.854Z,23.07
2019-05-03T00:46:52.265Z,22.60
2019-05-03T00:49:22.620Z,25.77
2019-05-03T00:51:52.121Z,21.47
2019-05-03T00:54:22.311Z,26.03
2019-05-03T00:56:52.228Z,23.00
2019-05-03T00:59:22.174Z,24.07
2019-05-03T01:01:52.173Z,22.97
2019-05-03T01:04:22.716Z,27.83
2019-05-03T01:06:54.772Z,27.23
2019-05-03T01:09:24.757Z,24.30
2019-05-03T01:11:54.166Z,26.80
2019-05-03T01:14:23.633Z,26.53
2019-05-03T01:16:53.040Z,25.60
2019-05-03T01:19:22.788Z,23.07
2019-05-03T01:21:52.210Z,23.50
2019-05-03T01:24:21.820Z,25.13
2019-05-03T01:26:52.580Z,21.90
2019-05-03T01:29:22.808Z,22.43
2019-05-03T01:31:52.818Z,22.13
2019-05-03T01:34:22.341Z,23.30
2019-05-03T01:36:51.948Z,21.20
2019-05-03T01:39:22.227Z,24.60
2019-05-03T01:41:52.926Z,26.03
2019-05-03T01:44:26.871Z,20.97
2019-05-03T01:46:57.912Z,22.93
2019-05-03T01:49:28.964Z,25.90
2019-05-03T01:52:02.087Z,25.73
2019-05-03T01:54:32.133Z,23.63
2019-05-03T01:57:02.463Z,26.10
2019-05-03T01:59:32.167Z,25.10
2019-05-03T02:02:03.253Z,25.93
2019-05-03T02:04:34.348Z,25.70
2019-05-03T02:07:03.893Z,28.07
2019-05-03T02:09:33.377Z,31.07
2019-05-03T02:12:02.778Z,25.07
2019-05-03T02:14:32.170Z,28.27
2019-05-03T02:17:02.786Z,31.70
2019-05-03T02:19:34.515Z,29.57
2019-05-03T02:22:04.030Z,26.73
2019-05-03T02:24:34.522Z,32.53
2019-05-03T02:27:05.402Z,28.67
2019-05-03T02:29:34.826Z,29.30
2019-05-03T02:32:04.214Z,24.60
2019-05-03T02:34:33.601Z,31.67
2019-05-03T02:37:03.375Z,26.17
2019-05-03T02:39:33.583Z,31.00
2019-05-03T02:42:10.862Z,30.10
2019-05-03T02:44:35.714Z,30.07
2019-05-03T02:47:06.750Z,33.17
2019-05-03T02:49:37.801Z,32.77
2019-05-03T02:52:07.218Z,30.90
2019-05-03T02:54:36.615Z,33.23
2019-05-03T02:57:06.444Z,27.00
2019-05-03T02:59:35.882Z,28.80
2019-05-03T03:02:06.409Z,34.03
2019-05-03T03:04:35.990Z,31.97
2019-05-03T03:07:06.245Z,31.13
2019-05-03T03:09:36.130Z,28.57
2019-05-03T03:12:07.022Z,30.67
2019-05-03T03:14:37.459Z,27.20
2019-05-03T03:17:08.452Z,38.53
2019-05-03T03:19:39.474Z,35.43
2019-05-03T03:22:11.251Z,39.03
2019-05-03T03:24:45.938Z,32.03
2019-05-03T03:27:17.887Z,33.43
2019-05-03T03:29:50.360Z,35.07
2019-05-03T03:32:29.252Z,31.53
2019-05-03T03:35:11.176Z,34.17
2019-05-03T03:37:36.536Z,33.37
2019-05-03T03:40:06.362Z,39.40
2019-05-03T03:42:37.395Z,33.73
2019-05-03T03:45:07.029Z,32.40
2019-05-03T03:47:39.255Z,38.70
2019-05-03T03:50:11.534Z,31.70
2019-05-03T03:52:41.985Z,30.07
2019-05-03T03:55:11.729Z,32.40
2019-05-03T03:57:42.655Z,31.90
2019-05-03T04:00:16.230Z,31.63
2019-05-03T04:02:46.030Z,33.33
2019-05-03T04:05:17.059Z,36.83
2019-05-03T04:07:47.987Z,31.43
2019-05-03T04:10:17.405Z,41.23
2019-05-03T04:12:47.952Z,33.13
2019-05-03T04:15:37.253Z,32.13
2019-05-03T04:18:12.222Z,33.80
2019-05-03T04:20:41.919Z,32.77
2019-05-03T04:23:11.522Z,32.27
2019-05-03T04:25:41.066Z,38.00
2019-05-03T04:28:10.478Z,34.00
2019-05-03T04:30:39.852Z,36.53
2019-05-03T04:33:09.259Z,32.33
2019-05-03T04:35:38.647Z,29.83
2019-05-03T04:38:08.041Z,31.27
2019-05-03T04:40:37.448Z,30.57
2019-05-03T04:43:06.954Z,29.90
2019-05-03T04:45:36.875Z,35.83
2019-05-03T04:48:06.671Z,33.90
2019-05-03T04:50:36.840Z,31.07
2019-05-03T04:53:06.360Z,34.00
2019-05-03T04:55:36.894Z,31.33
2019-05-03T04:58:06.302Z,32.93
2019-05-03T05:00:37.382Z,31.93
2019-05-03T05:03:06.796Z,29.83
2019-05-03T05:05:36.531Z,31.23
2019-05-03T05:08:06.267Z,32.13
2019-05-03T05:10:36.219Z,26.03
2019-05-03T05:13:05.901Z,29.73
2019-05-03T05:15:36.136Z,32.17
2019-05-03T05:18:16.151Z,28.83
2019-05-03T05:20:56.218Z,30.17
2019-05-03T05:23:25.515Z,32.03
2019-05-03T05:25:59.410Z,25.70
2019-05-03T05:28:33.071Z,28.33
2019-05-03T05:31:04.810Z,30.43
2019-05-03T05:33:35.354Z,26.53
2019-05-03T05:36:04.960Z,30.90
2019-05-03T05:38:37.260Z,25.60
2019-05-03T05:41:09.405Z,29.47
2019-05-03T05:43:38.702Z,25.97
2019-05-03T05:46:08.022Z,30.37
2019-05-03T05:48:38.978Z,30.37
2019-05-03T05:51:08.279Z,29.17
2019-05-03T05:53:40.796Z,27.57
2019-05-03T05:56:15.785Z,28.97
2019-05-03T05:58:46.854Z,28.27
2019-05-03T06:01:20.910Z,31.07
2019-05-03T06:03:54.972Z,28.07
2019-05-03T06:06:31.322Z,26.27
2019-05-03T06:09:02.262Z,30.83
2019-05-03T06:11:36.107Z,26.63
2019-05-03T06:14:15.726Z,29.13
2019-05-03T06:16:55.566Z,30.17
2019-05-03T06:19:26.553Z,27.83
2019-05-03T06:22:09.619Z,25.47
2019-05-03T06:24:45.134Z,24.97
2019-05-03T06:27:31.065Z,21.27
2019-05-03T06:30:02.079Z,25.60
2019-05-03T06:32:37.502Z,23.37
2019-05-03T06:35:10.281Z,29.23
2019-05-03T06:37:46.028Z,32.07
2019-05-03T06:40:15.704Z,25.90
2019-05-03T06:42:52.502Z,26.80
2019-05-03T06:45:17.552Z,25.97
2019-05-03T06:47:51.744Z,24.60
2019-05-03T06:50:25.268Z,20.47
2019-05-03T06:52:52.034Z,21.97
2019-05-03T06:55:21.465Z,24.67
2019-05-03T06:57:50.824Z,22.17
2019-05-03T07:00:37.258Z,20.80
2019-05-03T07:03:25.953Z,22.90
2019-05-03T07:06:14.980Z,21.73
2019-05-03T07:08:51.586Z,22.67
2019-05-03T07:11:20.870Z,24.33
2019-05-03T07:13:50.336Z,22.83
2019-05-03T07:16:19.639Z,20.97
2019-05-03T07:18:49.051Z,21.40
2019-05-03T07:21:18.393Z,24.03
2019-05-03T07:23:48.027Z,20.67
2019-05-03T07:26:17.391Z,21.37
2019-05-03T07:28:50.123Z,20.20
2019-05-03T07:31:20.159Z,19.50
2019-05-03T07:33:55.028Z,16.27
2019-05-03T07:36:28.050Z,20.13
2019-05-03T07:38:55.693Z,18.20
2019-05-03T07:41:27.160Z,19.70
2019-05-03T07:43:56.006Z,19.30
2019-05-03T07:46:25.296Z,14.73
2019-05-03T07:48:54.915Z,19.30
2019-05-03T07:51:24.865Z,19.70
2019-05-03T07:53:55.595Z,21.43
2019-05-03T07:56:32.458Z,17.73
2019-05-03T07:59:06.186Z,19.60
2019-05-03T08:01:36.176Z,17.83
2019-05-03T08:04:05.723Z,17.03
2019-05-03T08:06:35.106Z,15.90
2019-05-03T08:09:06.812Z,19.63
2019-05-03T08:11:36.927Z,18.03
2019-05-03T08:14:07.918Z,14.67
2019-05-03T08:16:37.285Z,14.03
2019-05-03T08:19:06.597Z,13.93
2019-05-03T08:21:38.071Z,16.03
2019-05-03T08:24:09.691Z,17.00
2019-05-03T08:26:39.025Z,16.77
2019-05-03T08:29:16.272Z,19.50
2019-05-03T08:32:00.207Z,15.60
2019-05-03T08:34:31.227Z,21.17
2019-05-03T08:37:02.366Z,17.30
2019-05-03T08:39:35.384Z,15.10
2019-05-03T08:42:12.387Z,16.90
2019-05-03T08:44:42.550Z,19.40
2019-05-03T08:47:15.492Z,17.83
2019-05-03T08:49:45.112Z,15.90
2019-05-03T08:52:15.720Z,16.27
2019-05-03T08:54:45.177Z,17.10
2019-05-03T08:57:15.097Z,17.23
2019-05-03T08:59:44.693Z,17.17
2019-05-03T09:02:17.303Z,16.93
2019-05-03T09:04:46.266Z,15.70
2019-05-03T09:07:15.746Z,12.33
2019-05-03T09:09:46.703Z,15.30
2019-05-03T09:12:16.220Z,15.30
2019-05-03T09:14:48.290Z,13.50
2019-05-03T09:17:16.512Z,11.00
2019-05-03T09:19:45.811Z,13.20
2019-05-03T09:22:15.124Z,13.27
2019-05-03T09:24:45.536Z,11.73
2019-05-03T09:27:15.572Z,9.10
2019-05-03T09:29:47.959Z,11.97
2019-05-03T09:32:20.303Z,11.97
2019-05-03T09:34:49.650Z,9.97
2019-05-03T09:37:18.940Z,11.30
2019-05-03T09:39:48.248Z,16.00
2019-05-03T09:42:17.569Z,11.80
2019-05-03T09:44:46.948Z,10.77
2019-05-03T09:47:16.377Z,8.63
2019-05-03T09:49:45.780Z,7.97
2019-05-03T09:52:16.116Z,10.00
2019-05-03T09:54:47.235Z,10.40
2019-05-03T09:57:16.541Z,10.30
2019-05-03T09:59:58.340Z,10.63
2019-05-03T10:02:19.859Z,10.23
2019-05-03T10:04:49.247Z,11.20
2019-05-03T10:07:18.567Z,9.10
2019-05-03T10:09:47.919Z,8.60
2019-05-03T10:12:19.339Z,8.93
2019-05-03T10:14:49.272Z,10.27
2019-05-03T10:17:25.211Z,12.70
2019-05-03T10:19:54.789Z,12.57
2019-05-03T10:22:29.079Z,11.20
2019-05-03T10:24:58.545Z,9.77
2019-05-03T10:27:29.573Z,11.07
2019-05-03T10:30:10.597Z,11.20
2019-05-03T10:32:35.505Z,10.17
2019-05-03T10:35:08.103Z,8.33
2019-05-03T10:37:37.563Z,9.50
2019-05-03T10:40:08.383Z,12.50
2019-05-03T10:42:38.226Z,13.23
2019-05-03T10:45:10.371Z,11.70
2019-05-03T10:47:39.675Z,16.40
2019-05-03T10:50:12.443Z,14.27
2019-05-03T10:52:44.630Z,11.70
2019-05-03T10:55:15.946Z,12.00
2019-05-03T10:57:49.575Z,14.73
2019-05-03T11:00:42.361Z,14.83
2019-05-03T11:02:56.647Z,14.23
2019-05-03T11:05:25.950Z,13.67
2019-05-03T11:07:55.676Z,10.50
2019-05-03T11:10:25.358Z,14.83
2019-05-03T11:12:54.900Z,17.10
2019-05-03T11:15:25.836Z,15.03
2019-05-03T11:17:55.336Z,13.93
2019-05-03T11:20:34.618Z,16.13
2019-05-03T11:23:06.359Z,15.60
2019-05-03T11:25:36.563Z,17.23
2019-05-03T11:28:10.835Z,12.03
2019-05-03T11:30:52.246Z,13.50
2019-05-03T11:33:21.623Z,12.93
2019-05-03T11:35:58.626Z,14.30
2019-05-03T11:38:29.875Z,9.00
2019-05-03T11:41:00.156Z,11.97
2019-05-03T11:43:31.931Z,13.27
2019-05-03T11:46:02.473Z,11.80
2019-05-03T11:48:36.371Z,14.13
2019-05-03T11:51:08.463Z,10.20
2019-05-03T11:53:40.411Z,5.83
2019-05-03T11:56:09.747Z,10.70
2019-05-03T11:58:39.094Z,7.40
2019-05-03T12:01:15.937Z,9.50
2019-05-03T12:03:44.879Z,5.90
2019-05-03T12:06:15.733Z,11.27
2019-05-03T12:08:45.621Z,8.17
2019-05-03T12:11:15.201Z,9.83
2019-05-03T12:13:47.513Z,8.47
2019-05-03T12:16:26.780Z,7.63
2019-05-03T12:18:54.137Z,9.97
2019-05-03T12:21:23.117Z,6.90
2019-05-03T12:23:53.998Z,6.63
2019-05-03T12:26:27.119Z,7.93
2019-05-03T12:28:55.084Z,6.97
2019-05-03T12:31:36.174Z,7.20
2019-05-03T12:33:55.581Z,11.70
2019-05-03T12:36:24.956Z,8.87
2019-05-03T12:38:54.775Z,9.30
2019-05-03T12:41:25.445Z,7.40
2019-05-03T12:43:55.238Z,6.57
2019-05-03T12:46:26.217Z,6.80
2019-05-03T12:48:55.730Z,7.30
2019-05-03T12:51:25.348Z,5.23
2019-05-03T12:53:55.260Z,9.07
2019-05-03T12:56:32.326Z,8.27
2019-05-03T12:58:58.300Z,11.17
2019-05-03T13:01:41.632Z,10.67
2019-05-03T13:04:25.860Z,9.37
2019-05-03T13:06:56.927Z,6.80
2019-05-03T13:09:27.098Z,8.80
2019-05-03T13:11:59.399Z,5.50
2019-05-03T13:14:29.177Z,7.63
2019-05-03T13:16:58.582Z,7.83
2019-05-03T13:19:29.744Z,4.40
2019-05-03T13:21:59.186Z,6.47
2019-05-03T13:24:31.177Z,9.13
2019-05-03T13:27:00.499Z,7.50
2019-05-03T13:29:29.894Z,5.77
2019-05-03T13:32:02.048Z,10.63
2019-05-03T13:34:30.192Z,7.33
2019-05-03T13:36:59.550Z,7.40
2019-05-03T13:39:28.839Z,8.93
2019-05-03T13:41:58.140Z,7.77
2019-05-03T13:44:27.434Z,9.03
2019-05-03T13:46:56.802Z,6.83
2019-05-03T13:49:26.635Z,8.03
2019-05-03T13:51:55.966Z,7.17
2019-05-03T13:54:25.562Z,9.97
2019-05-03T13:56:55.288Z,6.47
2019-05-03T13:59:24.773Z,11.60
2019-05-03T14:01:54.716Z,11.87
2019-05-03T14:04:24.037Z,10.00
2019-05-03T14:06:55.221Z,10.27
2019-05-03T14:09:25.129Z,7.93
2019-05-03T14:11:55.325Z,11.10
2019-05-03T14:14:25.875Z,8.70
2019-05-03T14:16:55.367Z,9.70
2019-05-03T14:19:26.360Z,8.87
2019-05-03T14:21:57.290Z,10.70
2019-05-03T14:24:26.662Z,11.30
2019-05-03T14:26:56.074Z,10.70
2019-05-03T14:29:25.397Z,12.50
2019-05-03T14:31:54.796Z,10.53
2019-05-03T14:34:25.723Z,8.77
2019-05-03T14:36:55.543Z,9.50
2019-05-03T14:39:25.410Z,9.23
2019-05-03T14:41:55.556Z,7.23
2019-05-03T14:44:25.315Z,11.67
2019-05-03T14:46:58.810Z,10.60
2019-05-03T14:49:26.686Z,8.43
2019-05-03T14:51:57.221Z,7.53
2019-05-03T14:54:31.166Z,11.57
2019-05-03T14:57:04.899Z,12.10
2019-05-03T14:59:54.719Z,7.83
2019-05-03T15:02:39.812Z,10.60
2019-05-03T15:04:56.803Z,10.30
2019-05-03T15:07:26.788Z,9.67
2019-05-03T15:09:56.142Z,7.77
2019-05-03T15:12:25.490Z,8.53
2019-05-03T15:14:55.795Z,13.17
2019-05-03T15:17:25.194Z,9.30
2019-05-03T15:19:57.233Z,9.90
2019-05-03T15:22:26.674Z,9.17
2019-05-03T15:24:56.015Z,7.63
2019-05-03T15:27:25.428Z,6.40
2019-05-03T15:29:55.547Z,9.90
2019-05-03T15:32:25.217Z,8.03
2019-05-03T15:34:57.276Z,11.10
2019-05-03T15:37:26.665Z,8.63
2019-05-03T15:39:58.938Z,8.70
2019-05-03T15:42:28.523Z,7.60
2019-05-03T15:45:15.912Z,6.50
2019-05-03T15:48:01.449Z,7.80
2019-05-03T15:50:30.746Z,10.57
2019-05-03T15:53:00.112Z,11.50
2019-05-03T15:55:32.052Z,11.67
2019-05-03T15:58:01.425Z,9.67
2019-05-03T16:00:30.714Z,10.53
2019-05-03T16:03:08.015Z,12.60
2019-05-03T16:05:31.080Z,9.33
2019-05-03T16:08:00.397Z,10.93
2019-05-03T16:10:29.904Z,11.83
2019-05-03T16:12:59.202Z,12.10
2019-05-03T16:15:28.484Z,8.87
2019-05-03T16:18:00.556Z,8.83
2019-05-03T16:20:29.946Z,11.57
2019-05-03T16:22:59.255Z,9.43
2019-05-03T16:25:28.564Z,13.00
2019-05-03T16:28:05.986Z,12.80
2019-05-03T16:30:40.026Z,12.70
2019-05-03T16:33:23.937Z,12.70
2019-05-03T16:35:44.383Z,9.30
2019-05-03T16:38:15.552Z,12.23
2019-05-03T16:40:45.139Z,8.93
2019-05-03T16:43:16.238Z,14.67
2019-05-03T16:45:45.707Z,9.73
2019-05-03T16:48:16.102Z,10.17
2019-05-03T16:50:46.078Z,10.60
2019-05-03T16:53:15.386Z,13.77
2019-05-03T16:55:44.797Z,11.83
2019-05-03T16:58:14.932Z,14.07
2019-05-03T17:00:45.274Z,12.43
2019-05-03T17:03:17.108Z,10.93
2019-05-03T17:05:56.394Z,12.57
2019-05-03T17:08:27.610Z,8.63
2019-05-03T17:11:05.636Z,12.90
2019-05-03T17:13:37.879Z,13.20
2019-05-03T17:16:09.450Z,12.00
2019-05-03T17:18:41.828Z,14.17
2019-05-03T17:21:11.133Z,10.63
2019-05-03T17:23:40.427Z,12.00
2019-05-03T17:26:09.709Z,10.57
2019-05-03T17:28:39.013Z,13.23
2019-05-03T17:31:08.317Z,13.80
2019-05-03T17:33:37.598Z,13.57
2019-05-03T17:36:06.967Z,16.47
2019-05-03T17:38:36.260Z,12.67
2019-05-03T17:41:23.208Z,10.50
2019-05-03T17:43:54.565Z,14.83
2019-05-03T17:46:26.648Z,15.63
2019-05-03T17:48:56.896Z,14.70
2019-05-03T17:51:41.107Z,12.37
2019-05-03T17:54:26.917Z,12.27
2019-05-03T17:57:00.649Z,16.73
2019-05-03T17:59:46.768Z,14.43
2019-05-03T18:02:26.373Z,12.13
2019-05-03T18:05:14.662Z,15.03
2019-05-03T18:07:48.748Z,14.97
2019-05-03T18:10:20.198Z,13.23
2019-05-03T18:12:50.517Z,13.90
2019-05-03T18:15:19.833Z,12.00
2019-05-03T18:17:49.731Z,17.47
2019-05-03T18:20:19.063Z,15.20
2019-05-03T18:22:54.502Z,15.57
2019-05-03T18:25:24.879Z,13.20
2019-05-03T18:27:57.121Z,12.80
2019-05-03T18:30:27.177Z,12.20
2019-05-03T18:33:02.341Z,15.17
2019-05-03T18:35:31.643Z,8.63
2019-05-03T18:38:00.930Z,12.27
2019-05-03T18:40:31.647Z,11.37
2019-05-03T18:43:04.436Z,14.53
2019-05-03T18:45:54.600Z,13.77
2019-05-03T18:48:26.601Z,16.10
2019-05-03T18:50:55.976Z,15.63
2019-05-03T18:53:25.473Z,12.97
2019-05-03T18:55:56.898Z,14.90
2019-05-03T18:58:26.303Z,15.73
2019-05-03T19:00:55.680Z,16.37
2019-05-03T19:03:27.679Z,17.13
2019-05-03T19:05:58.765Z,20.37
2019-05-03T19:08:35.662Z,17.37
2019-05-03T19:11:12.530Z,13.70
2019-05-03T19:13:49.395Z,14.53
2019-05-03T19:16:36.423Z,17.27
2019-05-03T19:19:08.713Z,16.67
2019-05-03T19:21:38.013Z,13.27
2019-05-03T19:24:07.486Z,17.70
2019-05-03T19:26:36.787Z,14.63
2019-05-03T19:29:07.202Z,11.30
2019-05-03T19:31:36.735Z,14.63
2019-05-03T19:34:06.201Z,15.80
2019-05-03T19:36:37.357Z,13.67
2019-05-03T19:39:07.200Z,17.10
2019-05-03T19:41:36.500Z,19.13
2019-05-03T19:44:05.873Z,11.63
2019-05-03T19:46:35.255Z,16.03
2019-05-03T19:49:05.072Z,16.37
2019-05-03T19:51:36.588Z,13.07
2019-05-03T19:54:05.565Z,16.07
2019-05-03T19:56:34.944Z,14.90
2019-05-03T19:59:05.895Z,18.33
2019-05-03T20:01:36.841Z,18.60
2019-05-03T20:04:10.503Z,16.07
2019-05-03T20:06:50.423Z,15.47
2019-05-03T20:09:24.581Z,16.20
2019-05-03T20:11:55.218Z,17.60
2019-05-03T20:14:25.765Z,15.93
2019-05-03T20:16:55.241Z,21.70
2019-05-03T20:19:25.676Z,15.57
2019-05-03T20:21:56.695Z,19.27
2019-05-03T20:24:26.276Z,18.87
2019-05-03T20:26:55.681Z,15.57
2019-05-03T20:29:25.184Z,15.57
2019-05-03T20:31:56.069Z,18.77
2019-05-03T20:34:25.469Z,14.50
2019-05-03T20:36:57.761Z,16.90
2019-05-03T20:39:27.162Z,16.87
2019-05-03T20:41:56.543Z,20.83
2019-05-03T20:44:35.926Z,17.97
2019-05-03T20:47:14.828Z,16.07
2019-05-03T20:49:45.352Z,21.33
2019-05-03T20:52:15.285Z,19.03
2019-05-03T20:54:45.672Z,16.97
2019-05-03T20:57:14.981Z,21.40
2019-05-03T20:59:48.697Z,23.70
2019-05-03T21:02:18.441Z,20.13
2019-05-03T21:04:49.078Z,21.40
2019-05-03T21:07:18.482Z,16.50
2019-05-03T21:09:50.952Z,22.37
2019-05-03T21:12:20.252Z,18.27
2019-05-03T21:14:51.059Z,20.80
2019-05-03T21:17:22.011Z,23.57
2019-05-03T21:19:56.697Z,19.43
2019-05-03T21:22:30.095Z,18.97
2019-05-03T21:25:01.046Z,19.43
2019-05-03T21:27:30.519Z,24.30
2019-05-03T21:29:59.895Z,24.23
2019-05-03T21:32:29.291Z,20.27
2019-05-03T21:34:58.587Z,23.43
2019-05-03T21:37:27.879Z,24.37
2019-05-03T21:39:58.655Z,22.30
2019-05-03T21:42:27.952Z,22.60
2019-05-03T21:44:57.251Z,20.40
2019-05-03T21:47:31.015Z,21.27
2019-05-03T21:50:01.275Z,21.57
2019-05-03T21:52:30.583Z,20.90
2019-05-03T21:54:59.880Z,21.20
2019-05-03T21:57:29.209Z,19.77
2019-05-03T21:59:58.563Z,24.53
2019-05-03T22:02:27.867Z,18.40
2019-05-03T22:04:57.156Z,16.13
2019-05-03T22:07:26.796Z,21.87
2019-05-03T22:09:56.272Z,22.90
2019-05-03T22:12:25.570Z,19.63
2019-05-03T22:14:56.571Z,20.93
2019-05-03T22:17:42.387Z,15.90
2019-05-03T22:20:16.314Z,23.67
2019-05-03T22:22:47.255Z,19.03
2019-05-03T22:25:18.271Z,17.87
2019-05-03T22:27:49.281Z,24.23
2019-05-03T22:30:18.561Z,20.30
2019-05-03T22:32:49.640Z,26.77
2019-05-03T22:35:18.991Z,30.47
2019-05-03T22:37:48.279Z,29.87
2019-05-03T22:40:17.594Z,35.33
2019-05-03T22:42:46.890Z,29.67
2019-05-03T22:45:16.354Z,36.53
2019-05-03T22:47:45.645Z,32.83
2019-05-03T22:50:15.081Z,34.60
2019-05-03T22:52:45.490Z,34.63
2019-05-03T22:55:15.290Z,41.43
2019-05-03T22:57:44.722Z,46.83
2019-05-03T23:00:14.664Z,48.17
2019-05-03T23:02:45.564Z,44.50
2019-05-03T23:05:15.110Z,48.57
2019-05-03T23:07:46.899Z,46.17
2019-05-03T23:10:17.480Z,53.60
2019-05-03T23:12:46.457Z,48.40
2019-05-03T23:15:15.898Z,48.63
2019-05-03T23:17:45.261Z,43.77
2019-05-03T23:20:19.478Z,38.00
2019-05-03T23:22:48.787Z,43.47
2019-05-03T23:25:18.173Z,40.00
2019-05-03T23:27:47.621Z,27.83
2019-05-03T23:30:17.650Z,27.97
2019-05-03T23:32:48.647Z,33.97
2019-05-03T23:35:28.702Z,30.37
2019-05-03T23:37:57.993Z,36.00
2019-05-03T23:40:27.350Z,33.13
2019-05-03T23:42:56.647Z,22.83
2019-05-03T23:45:27.649Z,22.83
2019-05-03T23:47:58.667Z,21.97
2019-05-03T23:50:27.950Z,15.27
2019-05-03T23:52:57.344Z,11.33
2019-05-03T23:55:28.347Z,10.00
2019-05-03T23:57:57.638Z,6.20
